Aérodrome :
LOGIN :

S'inscrire | Disclaimer

   EN    FR    IT 

 










Légende :    VFR   VFR Marginal   IFR   IFR Intensif   IFR Très Intensif
Visi : 
Plafond : 
>= 8 km
>= 3000ft
5 à 8 km
1000 à 3000 ft
1500m à 5 km
500 à 1000 ft
800 à 1500m
200 à 500 ft
< 800m
< 200 ft
Symboles :   Orages  Brouillard  Fortes neiges  Fortes précipitations  Vent > 20 kt
SIGMETs :   Divers  Orages  Givrage  Turbulence  Onde Orograph.  Cendres Volcan.






- Altitude de l'aérodrome : 299 ft
- Code IATA : EDM


LFRI - La Roche Sur Yon - Les Ajoncs

DERNIER METAR :
  • 211800Z AUTO 22018KT 190V260 8000 -RA BKN025/// BKN033/// OVC041/// ///TCU 10/08 Q0992 TEMPO 21025G35KT 4500 RA BKN010

METARs EXPIRÉS :
  • 211730Z AUTO 22019KT 190V250 9999 FEW025/// SCT052/// BKN086/// ///CB 10/07 Q0992 TEMPO 21025G35KT 4500 RA BKN010
  • 211700Z AUTO 23024G37KT 200V260 4700 -RA BR SCT022/// BKN031/// BKN040/// ///CB 09/07 Q0993 TEMPO 2500 RA BKN008 BKN030CB
  • 211630Z AUTO 22019G30KT 190V250 9999 FEW020/// BKN025/// BKN034/// ///TCU 11/08 Q0992 TEMPO 20025G45KT 2500 RA BKN008 BKN030CB
  • 211600Z AUTO 21019G33KT 9999 -RA BKN020/// BKN039/// OVC050/// ///CB 11/10 Q0992 TEMPO 20025G45KT 2500 RA BKN008 BKN030CB
  • 211530Z AUTO 23017G29KT 190V250 9999 -RA BKN017/// OVC026/// ///CB 11/10 Q0992 TEMPO 20025G45KT 2500 RA BKN008 BKN030CB

TAF TAF LFRI
Valide du 21 à 18h jusqu'au 22 à 18h UTC


211700Z 2118/2218 21015G25KT 9999 SCT025 BKN040
TEMPO 2118/2121 21025G35KT
TEMPO 2118/2208 4500 RA BKN010
BECMG 2121/2123 24012KT
BECMG 2201/2203 31004KT
TEMPO 2213/2218 28015G25KT 4500 SHRA BKN020TCU SCT030CB



MET'MAP, la Météo Aéronautique d'un coup d'oeil ! - Copyright ORBIFLY Décembre 2007 - Disclaimer

ORBIFLY MET'MAP TEAM :

Programmation & Développement : Alexandra Zaïnal
Sur une idée originale de : Baudouin d'Aumeries
Assistance à la programmation : Marc-Olivier Méhu
Soutien technique & logistique : Manuel Goepfert

Contact : metmap@orbifly.com




SOURCES & CREDITS :

   NOAA